createdAt,value
2017-11-15T00:00:03.396Z,16.33
2017-11-15T00:02:30.448Z,15.23
2017-11-15T00:04:57.491Z,16.70
2017-11-15T00:07:24.516Z,14.93
2017-11-15T00:09:50.738Z,15.23
2017-11-15T00:12:16.998Z,15.80
2017-11-15T00:14:44.011Z,14.53
2017-11-15T00:17:10.253Z,14.93
2017-11-15T00:19:36.526Z,16.40
2017-11-15T00:22:03.504Z,13.73
2017-11-15T00:24:29.777Z,14.93
2017-11-15T00:26:56.793Z,14.50
2017-11-15T00:29:23.020Z,15.13
2017-11-15T00:31:49.305Z,14.97
2017-11-15T00:34:15.588Z,16.10
2017-11-15T00:36:41.855Z,16.03
2017-11-15T00:39:08.805Z,15.57
2017-11-15T00:41:35.758Z,15.70
2017-11-15T00:44:02.754Z,16.03
2017-11-15T00:46:29.008Z,15.90
2017-11-15T00:48:56.030Z,14.33
2017-11-15T00:51:22.284Z,16.60
2017-11-15T00:53:49.225Z,15.47
2017-11-15T00:56:16.248Z,16.37
2017-11-15T00:58:42.473Z,17.77
2017-11-15T01:01:08.748Z,16.73
2017-11-15T01:03:35.737Z,17.37
2017-11-15T01:06:02.004Z,17.67
2017-11-15T01:08:28.959Z,18.30
2017-11-15T01:10:55.202Z,16.30
2017-11-15T01:13:21.552Z,16.30
2017-11-15T01:15:48.541Z,16.93
2017-11-15T01:18:14.804Z,15.53
2017-11-15T01:20:41.784Z,17.63
2017-11-15T01:23:09.249Z,16.10
2017-11-15T01:25:35.468Z,14.70
2017-11-15T01:28:02.421Z,16.67
2017-11-15T01:30:29.415Z,17.70
2017-11-15T01:32:55.648Z,16.50
2017-11-15T01:35:21.877Z,16.77
2017-11-15T01:37:48.104Z,17.43
2017-11-15T01:40:14.356Z,16.90
2017-11-15T01:42:41.340Z,16.27
2017-11-15T01:45:07.608Z,17.17
2017-11-15T01:47:33.928Z,16.37
2017-11-15T01:50:00.206Z,18.10
2017-11-15T01:52:27.210Z,17.40
2017-11-15T01:54:53.487Z,17.87
2017-11-15T01:57:19.728Z,17.10
2017-11-15T01:59:45.980Z,17.13
2017-11-15T02:02:12.235Z,17.17
2017-11-15T02:04:38.508Z,19.07
2017-11-15T02:07:04.857Z,18.03
2017-11-15T02:09:31.083Z,18.33
2017-11-15T02:11:57.329Z,19.97
2017-11-15T02:14:23.587Z,19.00
2017-11-15T02:16:49.894Z,19.57
2017-11-15T02:19:16.183Z,19.60
2017-11-15T02:21:42.433Z,18.13
2017-11-15T02:24:08.704Z,18.70
2017-11-15T02:26:34.975Z,19.47
2017-11-15T02:29:01.245Z,17.97
2017-11-15T02:31:27.467Z,19.07
2017-11-15T02:33:53.718Z,17.97
2017-11-15T02:36:19.969Z,18.57
2017-11-15T02:38:46.291Z,18.13
2017-11-15T02:41:12.620Z,19.13
2017-11-15T02:43:38.869Z,18.23
2017-11-15T02:46:05.893Z,18.20
2017-11-15T02:48:32.096Z,18.20
2017-11-15T02:50:58.433Z,19.00
2017-11-15T02:53:24.706Z,17.87
2017-11-15T02:55:51.772Z,18.00
2017-11-15T02:58:18.064Z,19.37
2017-11-15T03:00:44.300Z,18.10
2017-11-15T03:03:10.554Z,18.40
2017-11-15T03:05:36.776Z,19.33
2017-11-15T03:08:03.043Z,18.97
2017-11-15T03:10:29.254Z,18.67
2017-11-15T03:12:55.542Z,19.50
2017-11-15T03:15:21.806Z,17.30
2017-11-15T03:17:48.028Z,17.67
2017-11-15T03:20:14.256Z,17.73
2017-11-15T03:22:40.579Z,17.87
2017-11-15T03:25:06.839Z,18.57
2017-11-15T03:27:33.103Z,17.87
2017-11-15T03:29:59.355Z,17.03
2017-11-15T03:32:26.318Z,18.17
2017-11-15T03:34:52.561Z,17.27
2017-11-15T03:37:18.801Z,17.27
2017-11-15T03:39:44.997Z,16.97
2017-11-15T03:42:11.264Z,16.70
2017-11-15T03:44:37.528Z,17.57
2017-11-15T03:47:04.558Z,17.03
2017-11-15T03:49:30.839Z,17.20
2017-11-15T03:51:57.029Z,19.33
2017-11-15T03:54:23.289Z,18.90
2017-11-15T03:56:49.529Z,18.53
2017-11-15T03:59:15.780Z,18.07
2017-11-15T04:01:42.061Z,19.00
2017-11-15T04:04:09.000Z,17.87
2017-11-15T04:06:35.201Z,18.43
2017-11-15T04:09:01.400Z,17.13
2017-11-15T04:11:27.584Z,16.70
2017-11-15T04:13:53.801Z,18.43
2017-11-15T04:16:20.064Z,15.77
2017-11-15T04:18:46.368Z,16.87
2017-11-15T04:21:13.308Z,16.10
2017-11-15T04:23:39.534Z,16.60
2017-11-15T04:26:05.739Z,17.03
2017-11-15T04:28:31.964Z,17.10
2017-11-15T04:30:58.241Z,17.10
2017-11-15T04:33:25.230Z,16.27
2017-11-15T04:35:51.483Z,17.90
2017-11-15T04:38:17.731Z,16.73
2017-11-15T04:40:44.718Z,16.30
2017-11-15T04:43:10.969Z,17.60
2017-11-15T04:45:37.233Z,15.80
2017-11-15T04:48:03.501Z,16.53
2017-11-15T04:50:29.745Z,15.20
2017-11-15T04:52:55.934Z,15.93
2017-11-15T04:55:22.906Z,15.77
2017-11-15T04:57:49.191Z,13.63
2017-11-15T05:00:16.158Z,14.23
2017-11-15T05:02:43.112Z,13.57
2017-11-15T05:05:10.110Z,13.50
2017-11-15T05:07:36.389Z,13.20
2017-11-15T05:10:02.605Z,14.80
2017-11-15T05:12:29.587Z,14.13
2017-11-15T05:14:55.807Z,13.97
2017-11-15T05:17:22.072Z,14.27
2017-11-15T05:19:48.394Z,13.90
2017-11-15T05:22:14.653Z,12.50
2017-11-15T05:24:41.618Z,12.40
2017-11-15T05:27:08.597Z,13.33
2017-11-15T05:29:34.874Z,13.10
2017-11-15T05:32:01.905Z,13.20
2017-11-15T05:34:28.460Z,13.17
2017-11-15T05:37:08.195Z,12.70
2017-11-15T05:39:41.422Z,13.87
2017-11-15T05:42:21.507Z,14.53
2017-11-15T05:44:47.884Z,13.80
2017-11-15T05:47:14.856Z,12.10
2017-11-15T05:49:41.084Z,14.13
2017-11-15T05:52:07.859Z,14.30
2017-11-15T05:54:34.091Z,12.20
2017-11-15T05:57:00.281Z,14.23
2017-11-15T05:59:26.532Z,14.43
2017-11-15T06:01:52.810Z,14.90
2017-11-15T06:04:19.761Z,13.00
2017-11-15T06:06:46.748Z,14.73
2017-11-15T06:09:12.994Z,15.73
2017-11-15T06:11:39.314Z,14.10
2017-11-15T06:14:05.491Z,14.40
2017-11-15T06:16:31.742Z,13.13
2017-11-15T06:18:58.028Z,12.17
2017-11-15T06:21:24.336Z,14.47
2017-11-15T06:23:50.593Z,14.50
2017-11-15T06:26:17.738Z,13.63
2017-11-15T06:28:43.969Z,14.90
2017-11-15T06:31:10.229Z,14.27
2017-11-15T06:33:36.513Z,14.80
2017-11-15T06:36:03.476Z,13.43
2017-11-15T06:38:30.535Z,14.60
2017-11-15T06:40:57.547Z,14.40
2017-11-15T06:43:23.804Z,15.00
2017-11-15T06:45:50.049Z,14.87
2017-11-15T06:48:17.041Z,14.57
2017-11-15T06:50:43.312Z,12.80
2017-11-15T06:53:10.312Z,13.07
2017-11-15T06:55:36.566Z,13.33
2017-11-15T06:58:02.879Z,12.63
2017-11-15T07:00:29.141Z,12.10
2017-11-15T07:02:55.403Z,12.57
2017-11-15T07:05:21.637Z,14.20
2017-11-15T07:07:47.896Z,12.53
2017-11-15T07:10:14.093Z,12.53
2017-11-15T07:12:40.261Z,13.97
2017-11-15T07:15:06.539Z,12.30
2017-11-15T07:17:33.489Z,12.97
2017-11-15T07:19:59.749Z,12.97
2017-11-15T07:22:26.012Z,12.93
2017-11-15T07:24:52.242Z,12.83
2017-11-15T07:27:18.497Z,15.10
2017-11-15T07:29:45.499Z,14.17
2017-11-15T07:32:11.782Z,14.70
2017-11-15T07:34:38.049Z,15.50
2017-11-15T07:37:04.278Z,13.03
2017-11-15T07:39:30.543Z,12.90
2017-11-15T07:41:57.567Z,14.50
2017-11-15T07:44:23.824Z,15.27
2017-11-15T07:46:50.857Z,15.10
2017-11-15T07:49:17.072Z,15.70
2017-11-15T07:51:43.489Z,15.27
2017-11-15T07:54:09.727Z,14.50
2017-11-15T07:56:35.931Z,15.30
2017-11-15T07:59:02.149Z,15.23
2017-11-15T08:01:28.395Z,16.17
2017-11-15T08:03:54.781Z,15.20
2017-11-15T08:06:21.776Z,15.20
2017-11-15T08:08:48.064Z,14.70
2017-11-15T08:11:15.010Z,14.40
2017-11-15T08:13:41.964Z,16.07
2017-11-15T08:16:08.916Z,15.70
2017-11-15T08:18:35.149Z,16.20
2017-11-15T08:21:01.376Z,14.80
2017-11-15T08:23:27.615Z,14.10
2017-11-15T08:25:53.852Z,15.90
2017-11-15T08:28:20.120Z,14.47
2017-11-15T08:30:46.532Z,16.47
2017-11-15T08:33:12.730Z,15.60
2017-11-15T08:35:38.973Z,16.40
2017-11-15T08:38:05.352Z,18.80
2017-11-15T08:40:32.382Z,15.23
2017-11-15T08:42:58.634Z,15.37
2017-11-15T08:45:26.551Z,17.50
2017-11-15T08:47:52.808Z,15.60
2017-11-15T08:50:19.160Z,17.43
2017-11-15T08:52:46.130Z,16.93
2017-11-15T08:55:12.364Z,18.17
2017-11-15T08:57:38.694Z,15.57
2017-11-15T09:00:04.894Z,14.47
2017-11-15T09:02:31.931Z,17.00
2017-11-15T09:04:58.167Z,15.70
2017-11-15T09:07:24.453Z,15.47
2017-11-15T09:09:50.676Z,17.17
2017-11-15T09:12:16.868Z,15.40
2017-11-15T09:14:44.801Z,15.27
2017-11-15T09:17:10.996Z,16.77
2017-11-15T09:19:37.208Z,17.03
2017-11-15T09:22:05.657Z,18.23
2017-11-15T09:24:32.629Z,18.03
2017-11-15T09:26:59.251Z,17.60
2017-11-15T09:29:26.246Z,16.60
2017-11-15T09:31:52.430Z,17.63
2017-11-15T09:34:19.437Z,17.40
2017-11-15T09:36:45.657Z,17.63
2017-11-15T09:39:11.974Z,19.20
2017-11-15T09:41:38.321Z,16.43
2017-11-15T09:44:04.773Z,16.70
2017-11-15T09:46:31.791Z,17.37
2017-11-15T09:48:58.034Z,17.97
2017-11-15T09:51:25.158Z,17.17
2017-11-15T09:53:51.453Z,17.20
2017-11-15T09:56:17.734Z,16.37
2017-11-15T09:58:44.004Z,20.33
2017-11-15T10:01:11.060Z,19.33
2017-11-15T10:03:37.375Z,17.77
2017-11-15T10:06:03.599Z,20.03
2017-11-15T10:08:30.578Z,17.13
2017-11-15T10:10:57.196Z,17.97
2017-11-15T10:13:24.158Z,16.60
2017-11-15T10:15:50.365Z,16.73
2017-11-15T10:18:17.363Z,18.07
2017-11-15T10:20:43.559Z,17.43
2017-11-15T10:23:09.873Z,18.77
2017-11-15T10:25:36.846Z,16.30
2017-11-15T10:28:03.105Z,16.97
2017-11-15T10:30:29.404Z,15.80
2017-11-15T10:32:55.672Z,17.57
2017-11-15T10:35:21.910Z,17.80
2017-11-15T10:37:48.175Z,18.20
2017-11-15T10:40:14.436Z,17.83
2017-11-15T10:42:40.712Z,18.00
2017-11-15T10:45:07.716Z,17.83
2017-11-15T10:47:33.996Z,18.33
2017-11-15T10:50:01.013Z,17.60
2017-11-15T10:52:27.263Z,17.80
2017-11-15T10:54:54.601Z,18.23
2017-11-15T10:57:20.802Z,17.00
2017-11-15T10:59:47.060Z,16.77
2017-11-15T11:02:14.071Z,17.87
2017-11-15T11:04:40.321Z,18.40
2017-11-15T11:07:06.608Z,16.20
2017-11-15T11:09:32.837Z,19.00
2017-11-15T11:11:59.058Z,18.47
2017-11-15T11:14:25.338Z,18.47
2017-11-15T11:16:51.586Z,17.30
2017-11-15T11:19:17.946Z,19.83
2017-11-15T11:21:44.148Z,17.77
2017-11-15T11:24:11.110Z,18.50
2017-11-15T11:26:38.156Z,17.93
2017-11-15T11:29:05.142Z,19.80
2017-11-15T11:31:31.380Z,18.03
2017-11-15T11:33:57.637Z,17.77
2017-11-15T11:36:23.861Z,19.87
2017-11-15T11:38:50.142Z,19.63
2017-11-15T11:41:16.409Z,17.37
2017-11-15T11:43:42.654Z,19.03
2017-11-15T11:46:09.590Z,17.97
2017-11-15T11:48:35.811Z,17.60
2017-11-15T11:51:02.087Z,18.10
2017-11-15T11:53:29.029Z,18.67
2017-11-15T11:55:56.016Z,17.97
2017-11-15T11:58:22.218Z,18.30
2017-11-15T12:00:48.473Z,16.83
2017-11-15T12:03:14.812Z,16.53
2017-11-15T12:05:41.022Z,15.53
2017-11-15T12:08:07.297Z,17.40
2017-11-15T12:10:33.592Z,16.30
2017-11-15T12:12:59.867Z,16.73
2017-11-15T12:15:26.857Z,17.73
2017-11-15T12:17:53.126Z,16.23
2017-11-15T12:20:19.449Z,16.50
2017-11-15T12:22:45.702Z,18.63
2017-11-15T12:25:11.884Z,16.00
2017-11-15T12:27:38.145Z,16.70
2017-11-15T12:30:04.399Z,16.07
2017-11-15T12:32:31.443Z,15.70
2017-11-15T12:34:58.457Z,16.63
2017-11-15T12:37:24.767Z,17.33
2017-11-15T12:39:51.079Z,16.13
2017-11-15T12:42:17.345Z,16.30
2017-11-15T12:44:43.618Z,17.03
2017-11-15T12:47:10.599Z,15.40
2017-11-15T12:49:36.856Z,15.73
2017-11-15T12:52:03.493Z,15.50
2017-11-15T12:54:29.690Z,17.43
2017-11-15T12:56:55.956Z,16.03
2017-11-15T12:59:22.221Z,17.00
2017-11-15T13:01:48.476Z,15.97
2017-11-15T13:04:14.771Z,16.17
2017-11-15T13:06:41.747Z,18.50
2017-11-15T13:09:08.036Z,16.70
2017-11-15T13:11:35.080Z,18.40
2017-11-15T13:14:02.070Z,16.57
2017-11-15T13:16:28.324Z,17.10
2017-11-15T13:18:54.575Z,17.63
2017-11-15T13:21:20.841Z,16.30
2017-11-15T13:23:47.125Z,16.73
2017-11-15T13:26:13.301Z,17.73
2017-11-15T13:28:39.591Z,17.50
2017-11-15T13:31:06.541Z,16.87
2017-11-15T13:33:33.540Z,16.43
2017-11-15T13:35:59.829Z,17.37
2017-11-15T13:38:26.101Z,15.53
2017-11-15T13:40:52.389Z,17.30
2017-11-15T13:43:19.416Z,17.27
2017-11-15T13:45:45.712Z,16.67
2017-11-15T13:48:11.989Z,17.60
2017-11-15T13:50:39.001Z,16.10
2017-11-15T13:53:05.193Z,18.07
2017-11-15T13:55:31.446Z,15.77
2017-11-15T13:57:57.709Z,17.40
2017-11-15T14:00:24.723Z,17.80
2017-11-15T14:02:51.005Z,17.80
2017-11-15T14:05:17.981Z,17.10
2017-11-15T14:07:44.213Z,15.70
2017-11-15T14:10:10.421Z,17.90
2017-11-15T14:12:37.417Z,15.00
2017-11-15T14:15:03.667Z,17.07
2017-11-15T14:17:29.886Z,16.93
2017-11-15T14:19:56.162Z,18.13
2017-11-15T14:22:22.393Z,15.47
2017-11-15T14:24:48.627Z,16.67
2017-11-15T14:27:14.823Z,15.50
2017-11-15T14:29:41.807Z,15.97
2017-11-15T14:32:08.093Z,15.90
2017-11-15T14:34:35.089Z,16.60
2017-11-15T14:37:01.374Z,15.30
2017-11-15T14:39:28.348Z,16.10
2017-11-15T14:41:54.587Z,17.00
2017-11-15T14:44:20.896Z,16.90
2017-11-15T14:46:47.177Z,16.93
2017-11-15T14:49:13.452Z,16.30
2017-11-15T14:51:39.705Z,16.37
2017-11-15T14:54:05.958Z,22.10
2017-11-15T14:56:32.204Z,18.10
2017-11-15T14:58:59.225Z,17.10
2017-11-15T15:01:25.485Z,16.50
2017-11-15T15:03:51.715Z,17.10
2017-11-15T15:06:18.722Z,16.70
2017-11-15T15:08:45.025Z,18.70
2017-11-15T15:11:11.269Z,17.00
2017-11-15T15:13:37.492Z,19.33
2017-11-15T15:16:04.996Z,17.17
2017-11-15T15:18:31.993Z,18.70
2017-11-15T15:20:58.309Z,18.23
2017-11-15T15:23:25.315Z,16.47
2017-11-15T15:25:51.561Z,17.10
2017-11-15T15:28:18.416Z,16.63
2017-11-15T15:30:45.428Z,17.97
2017-11-15T15:33:11.688Z,18.50
2017-11-15T15:35:38.665Z,19.57
2017-11-15T15:38:04.884Z,18.57
2017-11-15T15:40:31.813Z,17.03
2017-11-15T15:42:58.787Z,16.53
2017-11-15T15:45:25.037Z,17.80
2017-11-15T15:47:51.313Z,18.80
2017-11-15T15:50:18.252Z,19.03
2017-11-15T15:52:44.666Z,19.10
2017-11-15T15:55:11.618Z,18.63
2017-11-15T15:57:37.830Z,18.40
2017-11-15T16:00:04.113Z,19.50
2017-11-15T16:02:30.418Z,20.73
2017-11-15T16:04:57.388Z,18.33
2017-11-15T16:07:23.589Z,20.53
2017-11-15T16:09:49.844Z,19.90
2017-11-15T16:12:16.872Z,20.50
2017-11-15T16:14:43.858Z,19.10
2017-11-15T16:17:10.143Z,18.90
2017-11-15T16:19:37.127Z,18.60
2017-11-15T16:22:03.353Z,19.67
2017-11-15T16:24:29.601Z,20.07
2017-11-15T16:26:55.833Z,18.77
2017-11-15T16:29:22.108Z,18.97
2017-11-15T16:31:49.090Z,18.80
2017-11-15T16:34:15.367Z,21.67
2017-11-15T16:36:41.559Z,21.03
2017-11-15T16:39:07.785Z,19.33
2017-11-15T16:41:34.080Z,19.07
2017-11-15T16:44:01.080Z,18.30
2017-11-15T16:46:28.077Z,17.17
2017-11-15T16:48:55.023Z,18.93
2017-11-15T16:51:22.027Z,20.33
2017-11-15T16:53:48.347Z,18.80
2017-11-15T16:56:14.573Z,19.13
2017-11-15T16:58:40.877Z,19.20
2017-11-15T17:01:07.111Z,20.00
2017-11-15T17:03:33.312Z,20.23
2017-11-15T17:06:00.293Z,20.67
2017-11-15T17:08:26.584Z,20.57
2017-11-15T17:10:53.562Z,18.73
2017-11-15T17:13:19.792Z,18.33
2017-11-15T17:15:46.015Z,22.20
2017-11-15T17:18:12.274Z,19.17
2017-11-15T17:20:38.560Z,20.43
2017-11-15T17:23:04.784Z,20.30
2017-11-15T17:25:31.793Z,19.63
2017-11-15T17:27:58.010Z,20.33
2017-11-15T17:30:24.241Z,21.37
2017-11-15T17:32:50.529Z,20.20
2017-11-15T17:35:16.712Z,20.70
2017-11-15T17:37:42.902Z,20.97
2017-11-15T17:40:09.129Z,20.10
2017-11-15T17:42:35.364Z,22.40
2017-11-15T17:45:01.979Z,19.53
2017-11-15T17:47:28.254Z,19.17
2017-11-15T17:49:54.552Z,20.37
2017-11-15T17:52:21.217Z,21.63
2017-11-15T17:54:47.490Z,20.93
2017-11-15T17:57:14.472Z,22.00
2017-11-15T17:59:40.695Z,20.30
2017-11-15T18:02:06.931Z,20.53
2017-11-15T18:04:33.599Z,22.17
2017-11-15T18:06:59.829Z,20.43
2017-11-15T18:09:26.120Z,19.50
2017-11-15T18:11:54.020Z,21.67
2017-11-15T18:14:20.260Z,21.57
2017-11-15T18:16:47.329Z,22.77
2017-11-15T18:19:14.314Z,21.50
2017-11-15T18:21:40.576Z,21.20
2017-11-15T18:24:07.659Z,21.90
2017-11-15T18:26:34.636Z,23.53
2017-11-15T18:29:00.885Z,23.00
2017-11-15T18:31:27.189Z,22.30
2017-11-15T18:33:53.448Z,21.23
2017-11-15T18:36:19.682Z,21.47
2017-11-15T18:38:46.676Z,20.90
2017-11-15T18:41:12.915Z,20.37
2017-11-15T18:43:39.215Z,21.83
2017-11-15T18:46:06.149Z,19.90
2017-11-15T18:48:32.402Z,20.77
2017-11-15T18:50:58.665Z,19.63
2017-11-15T18:53:24.890Z,19.17
2017-11-15T18:55:51.157Z,19.77
2017-11-15T18:58:18.164Z,20.17
2017-11-15T19:00:44.407Z,19.53
2017-11-15T19:03:10.597Z,21.87
2017-11-15T19:05:36.892Z,20.07
2017-11-15T19:08:03.213Z,20.23
2017-11-15T19:10:29.537Z,21.30
2017-11-15T19:12:56.556Z,20.73
2017-11-15T19:15:22.785Z,19.33
2017-11-15T19:17:49.065Z,21.50
2017-11-15T19:20:15.255Z,19.63
2017-11-15T19:22:41.575Z,21.80
2017-11-15T19:25:07.842Z,18.97
2017-11-15T19:27:34.863Z,19.50
2017-11-15T19:30:01.143Z,19.00
2017-11-15T19:32:28.098Z,20.13
2017-11-15T19:34:54.336Z,22.10
2017-11-15T19:37:20.592Z,28.47
2017-11-15T19:39:46.892Z,28.23
2017-11-15T19:42:13.113Z,29.40
2017-11-15T19:44:40.104Z,29.17
2017-11-15T19:47:06.357Z,27.50
2017-11-15T19:49:33.361Z,26.10
2017-11-15T19:51:59.672Z,27.47
2017-11-15T19:54:25.905Z,26.43
2017-11-15T19:56:52.094Z,27.00
2017-11-15T19:59:19.096Z,25.37
2017-11-15T20:01:45.468Z,24.23
2017-11-15T20:04:11.720Z,21.43
2017-11-15T20:06:38.785Z,17.90
2017-11-15T20:09:05.045Z,18.30
2017-11-15T20:11:31.242Z,19.07
2017-11-15T20:13:57.494Z,21.27
2017-11-15T20:16:23.733Z,20.07
2017-11-15T20:18:50.032Z,19.97
2017-11-15T20:21:16.275Z,21.87
2017-11-15T20:23:42.903Z,21.17
2017-11-15T20:26:09.125Z,20.50
2017-11-15T20:28:35.453Z,20.57
2017-11-15T20:31:01.745Z,22.40
2017-11-15T20:33:28.757Z,20.80
2017-11-15T20:35:54.967Z,22.20
2017-11-15T20:38:21.241Z,22.30
2017-11-15T20:40:48.231Z,21.33
2017-11-15T20:43:14.445Z,21.03
2017-11-15T20:45:41.445Z,21.43
2017-11-15T20:48:07.650Z,21.40
2017-11-15T20:50:33.882Z,21.70
2017-11-15T20:53:00.131Z,20.50
2017-11-15T20:55:26.336Z,20.67
2017-11-15T20:57:52.554Z,21.27
2017-11-15T21:00:18.788Z,20.57
2017-11-15T21:02:44.985Z,20.73
2017-11-15T21:05:11.973Z,19.87
2017-11-15T21:07:38.214Z,19.20
2017-11-15T21:10:04.417Z,18.23
2017-11-15T21:12:30.752Z,20.30
2017-11-15T21:14:56.964Z,20.20
2017-11-15T21:17:23.897Z,20.70
2017-11-15T21:19:50.836Z,20.87
2017-11-15T21:22:17.825Z,21.07
2017-11-15T21:24:44.124Z,20.60
2017-11-15T21:27:10.406Z,20.23
2017-11-15T21:29:36.692Z,21.17
2017-11-15T21:32:02.915Z,21.60
2017-11-15T21:34:29.190Z,23.20
2017-11-15T21:36:55.420Z,19.53
2017-11-15T21:39:21.670Z,17.50
2017-11-15T21:41:47.945Z,19.77
2017-11-15T21:44:14.225Z,16.97
2017-11-15T21:46:41.191Z,18.10
2017-11-15T21:49:08.257Z,15.47
2017-11-15T21:51:34.555Z,15.70
2017-11-15T21:54:00.754Z,16.07
2017-11-15T21:56:27.013Z,15.93
2017-11-15T21:58:54.037Z,18.50
2017-11-15T22:01:20.260Z,17.87
2017-11-15T22:03:46.536Z,18.30
2017-11-15T22:06:13.515Z,21.17
2017-11-15T22:08:39.769Z,22.67
2017-11-15T22:11:06.053Z,21.07
2017-11-15T22:13:32.250Z,20.73
2017-11-15T22:15:59.237Z,21.00
2017-11-15T22:18:25.527Z,19.63
2017-11-15T22:20:52.583Z,20.90
2017-11-15T22:23:19.558Z,20.60
2017-11-15T22:25:45.799Z,21.63
2017-11-15T22:28:12.061Z,21.70
2017-11-15T22:30:38.289Z,20.43
2017-11-15T22:33:04.565Z,20.50
2017-11-15T22:35:30.809Z,22.00
2017-11-15T22:37:57.073Z,19.40
2017-11-15T22:40:23.278Z,21.40
2017-11-15T22:42:49.501Z,21.97
2017-11-15T22:45:15.791Z,21.40
2017-11-15T22:47:42.761Z,21.33
2017-11-15T22:50:08.949Z,21.07
2017-11-15T22:52:35.924Z,23.43
2017-11-15T22:55:02.944Z,21.97
2017-11-15T22:57:29.154Z,23.70
2017-11-15T22:59:55.426Z,21.30
2017-11-15T23:02:21.648Z,21.43
2017-11-15T23:04:48.670Z,21.90
2017-11-15T23:07:15.678Z,21.60
2017-11-15T23:09:41.923Z,21.70
2017-11-15T23:12:08.189Z,22.67
2017-11-15T23:14:35.132Z,22.57
2017-11-15T23:17:02.135Z,20.77
2017-11-15T23:19:28.362Z,20.13
2017-11-15T23:21:54.588Z,21.10
2017-11-15T23:24:20.826Z,22.00
2017-11-15T23:26:47.040Z,21.57
2017-11-15T23:29:13.341Z,21.10
2017-11-15T23:31:39.556Z,23.80
2017-11-15T23:34:06.469Z,21.37
2017-11-15T23:36:32.740Z,21.30
2017-11-15T23:38:58.916Z,21.23
2017-11-15T23:41:25.191Z,20.50
2017-11-15T23:43:52.141Z,21.40
2017-11-15T23:46:19.051Z,21.20
2017-11-15T23:48:45.256Z,20.53
2017-11-15T23:51:11.456Z,19.90
2017-11-15T23:53:37.661Z,18.67
2017-11-15T23:56:04.629Z,18.60
2017-11-15T23:58:30.833Z,17.80
